sensor_id;sensor_type;location;lat;lon;timestamp;noise_LAeq;noise_LA_min;noise_LA_max;noise_LA01;noise_LA95
64996;Laerm;51545;51.568;6.998;2023-09-19T00:01:22;43.21;37.41;57.74;;
64996;Laerm;51545;51.568;6.998;2023-09-19T00:03:48;46.22;38.85;64.35;;
64996;Laerm;51545;51.568;6.998;2023-09-19T00:06:13;46.73;38.57;61.26;;
64996;Laerm;51545;51.568;6.998;2023-09-19T00:08:39;45.78;39.26;60.91;;
64996;Laerm;51545;51.568;6.998;2023-09-19T00:11:05;42.95;37.02;61.61;;
64996;Laerm;51545;51.568;6.998;2023-09-19T00:13:31;44.33;38.00;55.52;;
64996;Laerm;51545;51.568;6.998;2023-09-19T00:15:56;41.94;37.20;48.60;;
64996;Laerm;51545;51.568;6.998;2023-09-19T00:18:25;47.83;39.70;60.76;;
64996;Laerm;51545;51.568;6.998;2023-09-19T00:20:58;47.50;40.43;62.28;;
64996;Laerm;51545;51.568;6.998;2023-09-19T00:23:23;42.66;38.19;56.17;;
64996;Laerm;51545;51.568;6.998;2023-09-19T00:25:50;44.27;39.94;57.96;;
64996;Laerm;51545;51.568;6.998;2023-09-19T00:28:16;45.08;38.41;63.44;;
64996;Laerm;51545;51.568;6.998;2023-09-19T00:30:44;41.82;36.45;57.46;;
64996;Laerm;51545;51.568;6.998;2023-09-19T00:33:10;42.43;36.73;58.80;;
64996;Laerm;51545;51.568;6.998;2023-09-19T00:35:50;46.32;38.21;63.18;;
64996;Laerm;51545;51.568;6.998;2023-09-19T00:38:16;44.33;38.99;58.48;;
64996;Laerm;51545;51.568;6.998;2023-09-19T00:40:46;45.13;39.94;58.86;;
64996;Laerm;51545;51.568;6.998;2023-09-19T00:43:11;42.15;37.63;46.27;;
64996;Laerm;51545;51.568;6.998;2023-09-19T00:45:38;45.50;38.06;60.72;;
64996;Laerm;51545;51.568;6.998;2023-09-19T00:48:04;46.81;37.86;60.05;;
64996;Laerm;51545;51.568;6.998;2023-09-19T00:50:35;41.22;36.16;51.73;;
64996;Laerm;51545;51.568;6.998;2023-09-19T00:53:01;43.62;39.46;52.86;;
64996;Laerm;51545;51.568;6.998;2023-09-19T00:55:28;46.07;36.84;58.88;;
64996;Laerm;51545;51.568;6.998;2023-09-19T00:57:56;42.72;36.80;54.98;;
64996;Laerm;51545;51.568;6.998;2023-09-19T01:00:22;45.29;38.32;66.45;;
64996;Laerm;51545;51.568;6.998;2023-09-19T01:02:49;43.51;37.96;56.32;;
64996;Laerm;51545;51.568;6.998;2023-09-19T01:05:14;43.76;38.59;50.55;;
64996;Laerm;51545;51.568;6.998;2023-09-19T01:07:40;46.42;36.98;66.87;;
64996;Laerm;51545;51.568;6.998;2023-09-19T01:10:08;43.89;37.63;58.65;;
64996;Laerm;51545;51.568;6.998;2023-09-19T01:15:32;44.54;39.67;60.09;;
64996;Laerm;51545;51.568;6.998;2023-09-19T01:23:26;43.80;39.79;54.85;;
64996;Laerm;51545;51.568;6.998;2023-09-19T01:28:53;43.18;38.35;50.66;;
64996;Laerm;51545;51.568;6.998;2023-09-19T01:31:23;40.92;36.80;54.90;;
64996;Laerm;51545;51.568;6.998;2023-09-19T01:33:54;43.59;39.20;49.24;;
64996;Laerm;51545;51.568;6.998;2023-09-19T01:36:23;43.87;38.05;61.86;;
64996;Laerm;51545;51.568;6.998;2023-09-19T01:38:50;42.72;38.57;50.79;;
64996;Laerm;51545;51.568;6.998;2023-09-19T01:41:25;42.73;38.81;50.83;;
64996;Laerm;51545;51.568;6.998;2023-09-19T01:43:52;45.44;40.41;59.54;;
64996;Laerm;51545;51.568;6.998;2023-09-19T01:46:30;42.65;38.16;52.96;;
64996;Laerm;51545;51.568;6.998;2023-09-19T01:51:39;45.66;39.46;63.69;;
64996;Laerm;51545;51.568;6.998;2023-09-19T01:54:11;43.12;38.44;49.79;;
64996;Laerm;51545;51.568;6.998;2023-09-19T01:57:01;44.33;39.11;58.82;;
64996;Laerm;51545;51.568;6.998;2023-09-19T01:59:35;48.73;40.69;69.26;;
64996;Laerm;51545;51.568;6.998;2023-09-19T02:02:03;45.59;40.52;56.34;;
64996;Laerm;51545;51.568;6.998;2023-09-19T02:04:32;45.66;38.66;60.69;;
64996;Laerm;51545;51.568;6.998;2023-09-19T02:07:00;47.02;40.78;67.76;;
64996;Laerm;51545;51.568;6.998;2023-09-19T02:09:26;45.72;38.62;62.88;;
64996;Laerm;51545;51.568;6.998;2023-09-19T02:11:52;46.72;40.68;66.43;;
64996;Laerm;51545;51.568;6.998;2023-09-19T02:14:17;45.29;39.67;55.77;;
64996;Laerm;51545;51.568;6.998;2023-09-19T02:16:45;46.45;40.49;60.04;;
64996;Laerm;51545;51.568;6.998;2023-09-19T02:19:11;45.14;40.33;62.92;;
64996;Laerm;51545;51.568;6.998;2023-09-19T02:21:36;45.59;40.48;60.71;;
64996;Laerm;51545;51.568;6.998;2023-09-19T02:24:02;46.08;40.40;55.76;;
64996;Laerm;51545;51.568;6.998;2023-09-19T02:26:28;44.74;39.96;57.17;;
64996;Laerm;51545;51.568;6.998;2023-09-19T02:28:53;44.31;40.63;49.00;;
64996;Laerm;51545;51.568;6.998;2023-09-19T02:31:19;44.98;40.13;60.53;;
64996;Laerm;51545;51.568;6.998;2023-09-19T02:33:44;44.44;38.45;63.49;;
64996;Laerm;51545;51.568;6.998;2023-09-19T02:36:11;46.43;39.06;60.91;;
64996;Laerm;51545;51.568;6.998;2023-09-19T02:38:37;46.87;42.30;59.28;;
64996;Laerm;51545;51.568;6.998;2023-09-19T02:41:02;46.36;42.21;58.20;;
64996;Laerm;51545;51.568;6.998;2023-09-19T02:43:28;45.50;41.41;56.60;;
64996;Laerm;51545;51.568;6.998;2023-09-19T02:45:54;47.73;41.78;70.03;;
64996;Laerm;51545;51.568;6.998;2023-09-19T02:48:19;44.81;40.78;50.27;;
64996;Laerm;51545;51.568;6.998;2023-09-19T02:50:45;45.87;41.19;57.24;;
64996;Laerm;51545;51.568;6.998;2023-09-19T02:53:11;46.21;40.64;67.39;;
64996;Laerm;51545;51.568;6.998;2023-09-19T02:55:39;45.98;41.26;53.33;;
64996;Laerm;51545;51.568;6.998;2023-09-19T02:58:06;46.18;42.01;57.39;;
64996;Laerm;51545;51.568;6.998;2023-09-19T03:00:37;46.12;40.34;58.98;;
64996;Laerm;51545;51.568;6.998;2023-09-19T03:03:02;46.08;41.07;52.56;;
64996;Laerm;51545;51.568;6.998;2023-09-19T03:05:28;47.58;42.35;63.40;;
64996;Laerm;51545;51.568;6.998;2023-09-19T03:07:56;45.48;41.88;62.02;;
64996;Laerm;51545;51.568;6.998;2023-09-19T03:10:22;46.48;43.07;61.05;;
64996;Laerm;51545;51.568;6.998;2023-09-19T03:12:50;46.31;41.05;58.32;;
64996;Laerm;51545;51.568;6.998;2023-09-19T03:15:16;46.94;43.31;56.58;;
64996;Laerm;51545;51.568;6.998;2023-09-19T03:17:46;45.99;42.94;52.76;;
64996;Laerm;51545;51.568;6.998;2023-09-19T03:20:15;46.95;43.71;50.71;;
64996;Laerm;51545;51.568;6.998;2023-09-19T03:22:44;46.73;43.51;50.21;;
64996;Laerm;51545;51.568;6.998;2023-09-19T03:25:10;46.11;42.81;51.03;;
64996;Laerm;51545;51.568;6.998;2023-09-19T03:27:37;46.83;43.27;57.44;;
64996;Laerm;51545;51.568;6.998;2023-09-19T03:30:04;47.53;43.64;61.90;;
64996;Laerm;51545;51.568;6.998;2023-09-19T03:32:35;47.02;43.73;52.68;;
64996;Laerm;51545;51.568;6.998;2023-09-19T03:35:01;47.63;43.79;56.71;;
64996;Laerm;51545;51.568;6.998;2023-09-19T03:37:27;47.38;44.15;53.64;;
64996;Laerm;51545;51.568;6.998;2023-09-19T03:39:52;47.43;43.85;54.37;;
64996;Laerm;51545;51.568;6.998;2023-09-19T03:42:18;47.74;43.37;61.90;;
64996;Laerm;51545;51.568;6.998;2023-09-19T03:44:50;47.28;44.07;51.07;;
64996;Laerm;51545;51.568;6.998;2023-09-19T03:47:17;47.72;43.89;54.12;;
64996;Laerm;51545;51.568;6.998;2023-09-19T03:49:44;48.08;44.30;59.51;;
64996;Laerm;51545;51.568;6.998;2023-09-19T03:52:10;46.84;43.48;51.56;;
64996;Laerm;51545;51.568;6.998;2023-09-19T03:54:35;47.35;43.70;51.39;;
64996;Laerm;51545;51.568;6.998;2023-09-19T03:57:01;47.62;43.55;55.84;;
64996;Laerm;51545;51.568;6.998;2023-09-19T03:59:26;47.09;43.78;54.11;;
64996;Laerm;51545;51.568;6.998;2023-09-19T04:01:53;47.91;44.11;55.11;;
64996;Laerm;51545;51.568;6.998;2023-09-19T04:04:22;47.59;44.11;66.48;;
64996;Laerm;51545;51.568;6.998;2023-09-19T04:06:50;47.21;43.77;52.66;;
64996;Laerm;51545;51.568;6.998;2023-09-19T04:09:15;46.80;43.34;53.11;;
64996;Laerm;51545;51.568;6.998;2023-09-19T04:11:41;47.16;43.22;53.54;;
64996;Laerm;51545;51.568;6.998;2023-09-19T04:14:06;47.44;44.21;54.52;;
64996;Laerm;51545;51.568;6.998;2023-09-19T04:16:31;47.53;43.16;61.85;;
64996;Laerm;51545;51.568;6.998;2023-09-19T04:18:57;47.98;44.55;61.90;;
64996;Laerm;51545;51.568;6.998;2023-09-19T04:21:22;47.30;42.51;59.16;;
64996;Laerm;51545;51.568;6.998;2023-09-19T04:23:48;49.17;43.98;64.49;;
64996;Laerm;51545;51.568;6.998;2023-09-19T04:26:13;47.16;43.86;53.90;;
64996;Laerm;51545;51.568;6.998;2023-09-19T04:28:41;48.30;45.24;59.10;;
64996;Laerm;51545;51.568;6.998;2023-09-19T04:31:06;46.86;43.64;50.45;;
64996;Laerm;51545;51.568;6.998;2023-09-19T04:33:33;47.62;43.06;59.55;;
64996;Laerm;51545;51.568;6.998;2023-09-19T04:36:00;47.36;43.84;51.34;;
64996;Laerm;51545;51.568;6.998;2023-09-19T04:38:25;47.95;43.95;60.23;;
64996;Laerm;51545;51.568;6.998;2023-09-19T04:40:57;48.30;44.36;54.12;;
64996;Laerm;51545;51.568;6.998;2023-09-19T04:43:22;47.37;44.00;57.19;;
64996;Laerm;51545;51.568;6.998;2023-09-19T04:45:49;47.75;43.74;53.28;;
64996;Laerm;51545;51.568;6.998;2023-09-19T04:48:16;49.27;44.77;66.86;;
64996;Laerm;51545;51.568;6.998;2023-09-19T04:50:41;47.65;44.53;51.20;;
64996;Laerm;51545;51.568;6.998;2023-09-19T04:53:07;47.34;43.20;64.62;;
64996;Laerm;51545;51.568;6.998;2023-09-19T04:55:32;47.24;44.02;54.61;;
64996;Laerm;51545;51.568;6.998;2023-09-19T04:57:58;47.89;44.71;57.25;;
64996;Laerm;51545;51.568;6.998;2023-09-19T05:00:23;47.85;44.21;57.91;;
64996;Laerm;51545;51.568;6.998;2023-09-19T05:02:52;47.97;44.99;57.65;;
64996;Laerm;51545;51.568;6.998;2023-09-19T05:05:18;47.61;44.40;56.22;;
64996;Laerm;51545;51.568;6.998;2023-09-19T05:07:44;48.18;44.56;56.59;;
64996;Laerm;51545;51.568;6.998;2023-09-19T05:10:10;48.97;45.56;62.87;;
64996;Laerm;51545;51.568;6.998;2023-09-19T05:12:37;48.17;43.59;52.22;;
64996;Laerm;51545;51.568;6.998;2023-09-19T05:15:03;48.56;44.98;56.57;;
64996;Laerm;51545;51.568;6.998;2023-09-19T05:17:30;48.51;44.80;55.43;;
64996;Laerm;51545;51.568;6.998;2023-09-19T05:19:56;48.47;45.28;56.74;;
64996;Laerm;51545;51.568;6.998;2023-09-19T05:22:23;49.27;45.76;67.50;;
64996;Laerm;51545;51.568;6.998;2023-09-19T05:24:50;49.53;45.99;58.82;;
64996;Laerm;51545;51.568;6.998;2023-09-19T05:27:16;50.62;46.58;57.59;;
64996;Laerm;51545;51.568;6.998;2023-09-19T05:29:43;53.36;49.05;61.66;;
64996;Laerm;51545;51.568;6.998;2023-09-19T05:32:10;53.89;49.34;60.19;;
64996;Laerm;51545;51.568;6.998;2023-09-19T05:34:36;62.98;53.96;75.32;;
64996;Laerm;51545;51.568;6.998;2023-09-19T05:37:02;69.67;61.39;73.78;;
64996;Laerm;51545;51.568;6.998;2023-09-19T05:39:27;69.01;58.71;73.55;;
64996;Laerm;51545;51.568;6.998;2023-09-19T05:41:53;69.46;59.85;74.61;;
64996;Laerm;51545;51.568;6.998;2023-09-19T05:44:18;69.86;61.80;76.20;;
64996;Laerm;51545;51.568;6.998;2023-09-19T05:46:44;65.26;53.07;73.08;;
64996;Laerm;51545;51.568;6.998;2023-09-19T05:49:11;53.21;48.80;67.19;;
64996;Laerm;51545;51.568;6.998;2023-09-19T05:51:36;53.43;49.92;56.98;;
64996;Laerm;51545;51.568;6.998;2023-09-19T05:54:02;63.16;51.98;73.02;;
64996;Laerm;51545;51.568;6.998;2023-09-19T05:56:28;53.51;48.55;60.50;;
64996;Laerm;51545;51.568;6.998;2023-09-19T05:58:53;61.32;49.89;71.73;;
64996;Laerm;51545;51.568;6.998;2023-09-19T06:01:19;61.80;54.34;69.56;;
64996;Laerm;51545;51.568;6.998;2023-09-19T06:03:44;56.55;49.75;64.89;;
64996;Laerm;51545;51.568;6.998;2023-09-19T06:06:10;58.80;51.19;66.92;;
64996;Laerm;51545;51.568;6.998;2023-09-19T06:08:35;56.65;49.51;65.55;;
64996;Laerm;51545;51.568;6.998;2023-09-19T06:11:01;57.29;49.90;66.65;;
64996;Laerm;51545;51.568;6.998;2023-09-19T06:13:30;55.28;49.33;63.48;;
64996;Laerm;51545;51.568;6.998;2023-09-19T06:16:00;55.51;49.14;62.68;;
64996;Laerm;51545;51.568;6.998;2023-09-19T06:18:31;56.13;51.01;65.32;;
64996;Laerm;51545;51.568;6.998;2023-09-19T06:20:59;51.29;45.94;61.64;;
64996;Laerm;51545;51.568;6.998;2023-09-19T06:23:25;56.41;46.07;65.91;;
64996;Laerm;51545;51.568;6.998;2023-09-19T06:25:52;57.23;49.40;63.22;;
64996;Laerm;51545;51.568;6.998;2023-09-19T06:28:18;55.48;48.88;64.35;;
64996;Laerm;51545;51.568;6.998;2023-09-19T06:30:49;55.30;48.99;63.02;;
64996;Laerm;51545;51.568;6.998;2023-09-19T06:33:14;56.94;50.81;69.11;;
64996;Laerm;51545;51.568;6.998;2023-09-19T06:35:40;56.68;50.51;66.51;;
64996;Laerm;51545;51.568;6.998;2023-09-19T06:38:07;56.57;50.76;62.46;;
64996;Laerm;51545;51.568;6.998;2023-09-19T06:40:34;59.07;53.56;65.95;;
64996;Laerm;51545;51.568;6.998;2023-09-19T06:43:00;55.67;48.15;65.46;;
64996;Laerm;51545;51.568;6.998;2023-09-19T06:45:27;59.90;50.67;70.12;;
64996;Laerm;51545;51.568;6.998;2023-09-19T06:47:53;60.74;54.44;67.49;;
64996;Laerm;51545;51.568;6.998;2023-09-19T06:50:21;56.08;47.13;66.92;;
64996;Laerm;51545;51.568;6.998;2023-09-19T06:52:51;57.90;47.39;66.19;;
64996;Laerm;51545;51.568;6.998;2023-09-19T06:55:21;53.41;46.43;62.29;;
64996;Laerm;51545;51.568;6.998;2023-09-19T06:57:49;56.50;46.62;65.90;;
64996;Laerm;51545;51.568;6.998;2023-09-19T07:00:15;59.00;51.82;65.78;;
64996;Laerm;51545;51.568;6.998;2023-09-19T07:02:44;53.70;47.20;61.22;;
64996;Laerm;51545;51.568;6.998;2023-09-19T07:05:10;53.02;48.24;60.51;;
64996;Laerm;51545;51.568;6.998;2023-09-19T07:07:36;54.55;49.45;62.11;;
64996;Laerm;51545;51.568;6.998;2023-09-19T07:10:03;55.12;46.39;64.67;;
64996;Laerm;51545;51.568;6.998;2023-09-19T07:12:31;50.61;45.59;60.45;;
64996;Laerm;51545;51.568;6.998;2023-09-19T07:14:58;50.77;45.59;57.88;;
64996;Laerm;51545;51.568;6.998;2023-09-19T07:17:23;51.19;45.15;68.41;;
64996;Laerm;51545;51.568;6.998;2023-09-19T07:19:49;49.84;45.03;61.02;;
64996;Laerm;51545;51.568;6.998;2023-09-19T07:22:15;50.46;44.78;65.49;;
64996;Laerm;51545;51.568;6.998;2023-09-19T07:24:41;50.30;46.19;59.32;;
64996;Laerm;51545;51.568;6.998;2023-09-19T07:27:06;49.00;44.67;62.46;;
64996;Laerm;51545;51.568;6.998;2023-09-19T07:29:32;47.67;42.33;61.75;;
64996;Laerm;51545;51.568;6.998;2023-09-19T07:31:57;48.20;44.59;59.29;;
64996;Laerm;51545;51.568;6.998;2023-09-19T07:34:22;48.84;44.39;60.03;;
64996;Laerm;51545;51.568;6.998;2023-09-19T07:36:49;48.08;44.34;54.86;;
64996;Laerm;51545;51.568;6.998;2023-09-19T07:39:15;47.21;44.02;50.88;;
64996;Laerm;51545;51.568;6.998;2023-09-19T07:41:43;48.41;43.47;59.65;;
64996;Laerm;51545;51.568;6.998;2023-09-19T07:44:08;49.01;43.92;56.44;;
64996;Laerm;51545;51.568;6.998;2023-09-19T07:46:35;48.92;44.67;63.53;;
64996;Laerm;51545;51.568;6.998;2023-09-19T07:49:01;48.61;44.91;59.14;;
64996;Laerm;51545;51.568;6.998;2023-09-19T07:51:26;51.66;46.06;63.10;;
64996;Laerm;51545;51.568;6.998;2023-09-19T07:53:52;48.67;44.25;60.06;;
64996;Laerm;51545;51.568;6.998;2023-09-19T07:56:18;48.46;44.58;60.13;;
64996;Laerm;51545;51.568;6.998;2023-09-19T07:58:45;50.44;44.02;67.34;;
64996;Laerm;51545;51.568;6.998;2023-09-19T08:01:10;48.49;44.88;57.89;;
64996;Laerm;51545;51.568;6.998;2023-09-19T08:03:39;48.39;44.05;61.88;;
64996;Laerm;51545;51.568;6.998;2023-09-19T08:06:09;48.43;43.28;60.49;;
64996;Laerm;51545;51.568;6.998;2023-09-19T08:08:36;50.93;45.93;65.06;;
64996;Laerm;51545;51.568;6.998;2023-09-19T08:11:03;52.37;44.14;66.21;;
64996;Laerm;51545;51.568;6.998;2023-09-19T08:13:37;48.13;44.73;54.51;;
64996;Laerm;51545;51.568;6.998;2023-09-19T08:16:06;48.81;44.10;57.58;;
64996;Laerm;51545;51.568;6.998;2023-09-19T08:18:32;47.05;43.90;58.37;;
64996;Laerm;51545;51.568;6.998;2023-09-19T08:20:58;47.95;44.59;61.04;;
64996;Laerm;51545;51.568;6.998;2023-09-19T08:23:25;49.13;44.95;64.24;;
64996;Laerm;51545;51.568;6.998;2023-09-19T08:25:56;51.80;45.91;63.61;;
64996;Laerm;51545;51.568;6.998;2023-09-19T08:28:21;50.20;46.09;62.13;;
64996;Laerm;51545;51.568;6.998;2023-09-19T08:30:50;50.74;45.18;63.14;;
64996;Laerm;51545;51.568;6.998;2023-09-19T08:33:16;50.39;44.85;63.88;;
64996;Laerm;51545;51.568;6.998;2023-09-19T08:35:42;50.70;43.67;71.96;;
64996;Laerm;51545;51.568;6.998;2023-09-19T08:38:08;49.99;42.62;70.01;;
64996;Laerm;51545;51.568;6.998;2023-09-19T08:40:37;52.19;43.04;70.41;;
64996;Laerm;51545;51.568;6.998;2023-09-19T08:43:05;51.26;44.28;71.33;;
64996;Laerm;51545;51.568;6.998;2023-09-19T08:45:33;53.90;44.91;69.75;;
64996;Laerm;51545;51.568;6.998;2023-09-19T08:48:23;52.37;42.75;68.16;;
64996;Laerm;51545;51.568;6.998;2023-09-19T08:51:03;51.92;45.61;69.43;;
64996;Laerm;51545;51.568;6.998;2023-09-19T08:56:26;52.47;44.92;69.05;;
64996;Laerm;51545;51.568;6.998;2023-09-19T08:58:57;53.50;46.38;70.69;;
64996;Laerm;51545;51.568;6.998;2023-09-19T09:01:27;49.66;45.64;66.98;;
64996;Laerm;51545;51.568;6.998;2023-09-19T09:03:54;50.14;45.09;67.07;;
64996;Laerm;51545;51.568;6.998;2023-09-19T09:06:23;50.75;45.85;63.55;;
64996;Laerm;51545;51.568;6.998;2023-09-19T09:08:52;50.19;45.12;68.81;;
64996;Laerm;51545;51.568;6.998;2023-09-19T09:11:18;49.33;44.34;64.23;;
64996;Laerm;51545;51.568;6.998;2023-09-19T09:13:45;47.89;44.09;57.08;;
64996;Laerm;51545;51.568;6.998;2023-09-19T09:16:11;49.83;45.78;56.23;;
64996;Laerm;51545;51.568;6.998;2023-09-19T09:18:38;49.18;46.12;62.25;;
64996;Laerm;51545;51.568;6.998;2023-09-19T09:21:03;48.67;44.69;60.15;;
64996;Laerm;51545;51.568;6.998;2023-09-19T09:23:29;52.14;45.81;65.84;;
64996;Laerm;51545;51.568;6.998;2023-09-19T09:25:56;50.04;45.40;64.66;;
64996;Laerm;51545;51.568;6.998;2023-09-19T09:28:26;48.90;44.53;64.70;;
64996;Laerm;51545;51.568;6.998;2023-09-19T09:30:52;52.23;45.75;66.35;;
64996;Laerm;51545;51.568;6.998;2023-09-19T09:33:18;52.37;45.68;71.87;;
64996;Laerm;51545;51.568;6.998;2023-09-19T09:35:52;50.77;44.27;69.70;;
64996;Laerm;51545;51.568;6.998;2023-09-19T09:38:21;50.54;43.59;75.31;;
64996;Laerm;51545;51.568;6.998;2023-09-19T09:40:52;49.88;43.63;71.61;;
64996;Laerm;51545;51.568;6.998;2023-09-19T09:43:39;50.34;44.62;67.21;;
64996;Laerm;51545;51.568;6.998;2023-09-19T09:46:08;50.24;45.44;63.48;;
64996;Laerm;51545;51.568;6.998;2023-09-19T09:49:00;50.90;43.73;64.33;;
64996;Laerm;51545;51.568;6.998;2023-09-19T09:51:47;51.67;47.24;66.59;;
64996;Laerm;51545;51.568;6.998;2023-09-19T09:54:24;53.19;46.63;71.87;;
64996;Laerm;51545;51.568;6.998;2023-09-19T09:56:59;50.38;44.97;63.95;;
64996;Laerm;51545;51.568;6.998;2023-09-19T10:02:40;54.84;48.53;69.10;;
64996;Laerm;51545;51.568;6.998;2023-09-19T10:05:14;49.97;45.47;61.77;;
64996;Laerm;51545;51.568;6.998;2023-09-19T10:08:10;50.04;45.40;56.89;;
64996;Laerm;51545;51.568;6.998;2023-09-19T10:10:39;50.52;45.95;60.13;;
64996;Laerm;51545;51.568;6.998;2023-09-19T10:13:14;54.24;47.58;66.32;;
64996;Laerm;51545;51.568;6.998;2023-09-19T10:15:44;52.37;45.62;64.48;;
64996;Laerm;51545;51.568;6.998;2023-09-19T10:18:20;49.50;44.39;66.89;;
64996;Laerm;51545;51.568;6.998;2023-09-19T10:20:46;49.66;45.17;61.22;;
64996;Laerm;51545;51.568;6.998;2023-09-19T10:23:12;48.68;43.14;59.35;;
64996;Laerm;51545;51.568;6.998;2023-09-19T10:25:42;48.24;43.20;58.38;;
64996;Laerm;51545;51.568;6.998;2023-09-19T10:28:09;52.25;43.46;68.28;;
64996;Laerm;51545;51.568;6.998;2023-09-19T10:30:49;52.99;44.79;63.56;;
64996;Laerm;51545;51.568;6.998;2023-09-19T10:33:23;53.03;44.63;65.77;;
64996;Laerm;51545;51.568;6.998;2023-09-19T10:35:51;51.03;47.01;61.42;;
64996;Laerm;51545;51.568;6.998;2023-09-19T10:38:18;50.86;45.48;66.59;;
64996;Laerm;51545;51.568;6.998;2023-09-19T10:40:51;49.62;44.80;64.06;;
64996;Laerm;51545;51.568;6.998;2023-09-19T10:43:19;51.00;44.69;66.08;;
64996;Laerm;51545;51.568;6.998;2023-09-19T10:45:47;50.43;44.39;65.32;;
64996;Laerm;51545;51.568;6.998;2023-09-19T10:48:18;48.73;45.24;61.58;;
64996;Laerm;51545;51.568;6.998;2023-09-19T10:51:15;48.60;44.11;60.59;;
64996;Laerm;51545;51.568;6.998;2023-09-19T10:54:01;51.24;44.83;68.12;;
64996;Laerm;51545;51.568;6.998;2023-09-19T10:56:33;49.29;42.86;63.16;;
64996;Laerm;51545;51.568;6.998;2023-09-19T10:59:11;50.35;43.90;66.32;;
64996;Laerm;51545;51.568;6.998;2023-09-19T11:01:56;53.36;45.39;66.37;;
64996;Laerm;51545;51.568;6.998;2023-09-19T11:04:33;53.47;46.15;69.35;;
64996;Laerm;51545;51.568;6.998;2023-09-19T11:07:13;50.62;45.08;62.27;;
64996;Laerm;51545;51.568;6.998;2023-09-19T11:12:11;52.19;45.61;61.96;;
64996;Laerm;51545;51.568;6.998;2023-09-19T11:14:38;52.40;45.79;68.28;;
64996;Laerm;51545;51.568;6.998;2023-09-19T11:30:34;51.39;46.57;62.26;;
64996;Laerm;51545;51.568;6.998;2023-09-19T11:36:08;49.53;43.43;62.69;;
64996;Laerm;51545;51.568;6.998;2023-09-19T11:43:53;54.64;47.31;67.26;;
64996;Laerm;51545;51.568;6.998;2023-09-19T11:46:24;52.56;45.22;66.13;;
64996;Laerm;51545;51.568;6.998;2023-09-19T11:48:51;50.38;43.80;59.69;;
64996;Laerm;51545;51.568;6.998;2023-09-19T11:51:21;58.36;47.14;69.56;;
64996;Laerm;51545;51.568;6.998;2023-09-19T11:53:55;53.38;47.05;65.88;;
64996;Laerm;51545;51.568;6.998;2023-09-19T11:56:24;53.30;46.52;69.07;;
64996;Laerm;51545;51.568;6.998;2023-09-19T11:58:54;48.61;44.62;59.57;;
64996;Laerm;51545;51.568;6.998;2023-09-19T12:01:33;52.63;45.08;66.09;;
64996;Laerm;51545;51.568;6.998;2023-09-19T12:04:00;50.89;44.86;60.08;;
64996;Laerm;51545;51.568;6.998;2023-09-19T12:06:28;52.72;46.45;65.62;;
64996;Laerm;51545;51.568;6.998;2023-09-19T12:09:02;50.20;43.88;68.48;;
64996;Laerm;51545;51.568;6.998;2023-09-19T12:11:32;49.19;44.51;60.46;;
64996;Laerm;51545;51.568;6.998;2023-09-19T12:13:59;49.63;43.34;61.75;;
64996;Laerm;51545;51.568;6.998;2023-09-19T12:16:26;52.34;44.22;62.99;;
64996;Laerm;51545;51.568;6.998;2023-09-19T12:18:55;50.58;44.56;64.60;;
64996;Laerm;51545;51.568;6.998;2023-09-19T12:21:31;52.85;47.13;68.61;;
64996;Laerm;51545;51.568;6.998;2023-09-19T12:24:11;52.50;46.28;68.08;;
64996;Laerm;51545;51.568;6.998;2023-09-19T12:26:45;54.86;47.24;66.20;;
64996;Laerm;51545;51.568;6.998;2023-09-19T12:29:20;52.00;46.79;63.67;;
64996;Laerm;51545;51.568;6.998;2023-09-19T12:31:57;51.13;44.75;65.24;;
64996;Laerm;51545;51.568;6.998;2023-09-19T12:34:32;52.54;44.87;69.44;;
64996;Laerm;51545;51.568;6.998;2023-09-19T12:39:46;54.12;46.89;70.17;;
64996;Laerm;51545;51.568;6.998;2023-09-19T12:42:22;52.97;45.92;66.66;;
64996;Laerm;51545;51.568;6.998;2023-09-19T12:44:51;53.07;45.56;68.76;;
64996;Laerm;51545;51.568;6.998;2023-09-19T12:47:26;53.73;47.25;66.09;;
64996;Laerm;51545;51.568;6.998;2023-09-19T12:50:11;50.76;44.86;62.34;;
64996;Laerm;51545;51.568;6.998;2023-09-19T12:52:45;49.54;43.80;59.88;;
64996;Laerm;51545;51.568;6.998;2023-09-19T12:55:40;50.81;42.57;64.47;;
64996;Laerm;51545;51.568;6.998;2023-09-19T12:58:14;53.39;47.02;66.24;;
64996;Laerm;51545;51.568;6.998;2023-09-19T13:00:42;54.53;46.34;65.98;;
64996;Laerm;51545;51.568;6.998;2023-09-19T13:05:57;50.67;45.76;63.09;;
64996;Laerm;51545;51.568;6.998;2023-09-19T13:08:35;52.59;45.76;63.55;;
64996;Laerm;51545;51.568;6.998;2023-09-19T13:11:11;49.89;43.25;67.85;;
64996;Laerm;51545;51.568;6.998;2023-09-19T13:13:43;51.51;45.14;61.36;;
64996;Laerm;51545;51.568;6.998;2023-09-19T13:16:20;53.11;45.90;66.08;;
64996;Laerm;51545;51.568;6.998;2023-09-19T13:18:50;52.84;45.46;66.99;;
64996;Laerm;51545;51.568;6.998;2023-09-19T13:21:26;51.47;43.50;65.19;;
64996;Laerm;51545;51.568;6.998;2023-09-19T13:23:54;52.65;45.91;64.71;;
64996;Laerm;51545;51.568;6.998;2023-09-19T13:26:25;50.59;43.96;68.11;;
64996;Laerm;51545;51.568;6.998;2023-09-19T13:28:50;51.13;42.76;66.88;;
64996;Laerm;51545;51.568;6.998;2023-09-19T13:31:16;50.42;43.72;61.38;;
64996;Laerm;51545;51.568;6.998;2023-09-19T13:33:44;56.20;43.32;67.98;;
64996;Laerm;51545;51.568;6.998;2023-09-19T13:36:11;52.26;44.85;65.19;;
64996;Laerm;51545;51.568;6.998;2023-09-19T13:38:39;56.56;46.96;70.26;;
64996;Laerm;51545;51.568;6.998;2023-09-19T13:41:04;56.80;49.04;68.57;;
64996;Laerm;51545;51.568;6.998;2023-09-19T13:43:31;50.58;44.01;61.83;;
64996;Laerm;51545;51.568;6.998;2023-09-19T13:45:56;50.16;45.40;62.28;;
64996;Laerm;51545;51.568;6.998;2023-09-19T13:48:22;51.67;46.37;65.27;;
64996;Laerm;51545;51.568;6.998;2023-09-19T13:50:49;52.27;46.65;65.39;;
64996;Laerm;51545;51.568;6.998;2023-09-19T13:53:15;55.17;46.38;74.64;;
64996;Laerm;51545;51.568;6.998;2023-09-19T13:55:42;54.11;45.09;65.53;;
64996;Laerm;51545;51.568;6.998;2023-09-19T13:58:07;51.39;45.61;71.05;;
64996;Laerm;51545;51.568;6.998;2023-09-19T14:00:36;50.78;45.36;73.36;;
64996;Laerm;51545;51.568;6.998;2023-09-19T14:03:04;49.78;45.70;62.56;;
64996;Laerm;51545;51.568;6.998;2023-09-19T14:05:29;50.27;45.08;67.80;;
64996;Laerm;51545;51.568;6.998;2023-09-19T14:07:55;56.57;44.99;77.70;;
64996;Laerm;51545;51.568;6.998;2023-09-19T14:10:24;56.25;48.13;72.66;;
64996;Laerm;51545;51.568;6.998;2023-09-19T14:12:51;56.35;46.89;75.63;;
64996;Laerm;51545;51.568;6.998;2023-09-19T14:15:16;54.84;47.64;68.75;;
64996;Laerm;51545;51.568;6.998;2023-09-19T14:17:42;55.26;46.90;72.67;;
64996;Laerm;51545;51.568;6.998;2023-09-19T14:20:08;57.58;46.99;80.00;;
64996;Laerm;51545;51.568;6.998;2023-09-19T14:22:35;51.85;45.85;65.84;;
64996;Laerm;51545;51.568;6.998;2023-09-19T14:25:04;53.28;45.95;73.27;;
64996;Laerm;51545;51.568;6.998;2023-09-19T14:27:30;52.29;44.46;70.06;;
64996;Laerm;51545;51.568;6.998;2023-09-19T14:29:56;54.73;46.10;76.06;;
64996;Laerm;51545;51.568;6.998;2023-09-19T14:32:22;49.58;44.56;63.57;;
64996;Laerm;51545;51.568;6.998;2023-09-19T14:34:48;49.03;44.26;65.75;;
64996;Laerm;51545;51.568;6.998;2023-09-19T14:37:14;48.65;44.46;60.09;;
64996;Laerm;51545;51.568;6.998;2023-09-19T14:39:41;51.98;46.73;64.14;;
64996;Laerm;51545;51.568;6.998;2023-09-19T14:42:10;52.35;46.23;67.73;;